Terminal Aerodrome Forecast
Issued by NWS Midland/Odessa, TX

Home | Current Version | Previous Version | Text Only | Print | Product List | Glossary On
Versions: 1 2 3 4 5 6 7 8 9 10 11 12 13 14 15 16 17
000
FTUS44 KMAF 181100
TAFMAF
TAF
KMAF 181120Z 1812/1912 12005KT P6SM BKN130
     FM181600 08009KT P6SM SCT035 BKN130
     FM190100 10009KT P6SM OVC035
     FM191000 13006KT P6SM OVC030=

USA.gov is the U.S. government's official web portal to all federal, state and local government web resources and services.